Time;durP1;ratioP1;P1;durP2;ratioP2;P2;SDS_P1;SDS_P2;PMS_P1;PMS_P2;Temp;Humidity;BMP_temperature;BMP_pressure;BME280_temperature;BME280_humidity;BME280_pressure;Samples;Min_cycle;Max_cycle;Signal;HPM_P1;HPM_P2
2021/08/08 00:00:29;;;;;;;6.05;1.17;;;17.50;73.20;;;;;;5054006;28;20104;-51
2021/08/08 00:02:55;;;;;;;1.77;0.98;;;17.50;73.10;;;;;;5053191;28;20120;-49
2021/08/08 00:05:21;;;;;;;5.50;1.80;;;17.40;73.00;;;;;;5054794;28;20021;-48
2021/08/08 00:07:48;;;;;;;6.13;1.30;;;17.50;73.00;;;;;;5054480;28;20021;-47
2021/08/08 00:10:14;;;;;;;0.70;0.70;;;17.50;72.80;;;;;;5054332;28;20032;-50
2021/08/08 00:12:41;;;;;;;4.60;1.80;;;17.50;73.20;;;;;;5054449;28;20067;-48
2021/08/08 00:15:09;;;;;;;3.47;1.00;;;17.30;74.80;;;;;;5054643;28;20116;-48
2021/08/08 00:17:35;;;;;;;3.50;1.20;;;17.30;75.00;;;;;;5054155;28;20197;-48
2021/08/08 00:20:00;;;;;;;1.92;0.93;;;17.20;75.40;;;;;;5054172;28;20111;-49
2021/08/08 00:22:26;;;;;;;5.05;1.20;;;17.20;75.50;;;;;;5054377;28;20028;-48
2021/08/08 00:24:51;;;;;;;2.65;1.40;;;17.20;75.20;;;;;;5054440;28;20021;-47
2021/08/08 00:27:17;;;;;;;2.63;1.50;;;17.20;75.20;;;;;;5054205;28;20021;-48
2021/08/08 00:29:43;;;;;;;1.90;1.00;;;17.30;75.20;;;;;;5054213;28;20388;-47
2021/08/08 00:32:09;;;;;;;1.73;1.27;;;17.20;75.60;;;;;;5053915;28;20122;-51
2021/08/08 00:34:34;;;;;;;2.42;1.42;;;17.20;75.50;;;;;;5056192;28;20025;-48
2021/08/08 00:37:00;;;;;;;1.73;1.17;;;17.10;75.80;;;;;;5054264;28;20047;-48
2021/08/08 00:39:26;;;;;;;2.65;1.10;;;17.10;76.30;;;;;;5054323;28;20083;-49
2021/08/08 00:41:53;;;;;;;1.73;1.40;;;17.00;76.40;;;;;;5053742;28;20499;-49
2021/08/08 00:44:18;;;;;;;1.25;1.00;;;17.00;76.60;;;;;;5053984;28;20021;-51
2021/08/08 00:46:44;;;;;;;3.17;1.00;;;17.00;76.50;;;;;;5054234;28;20390;-49
2021/08/08 00:49:10;;;;;;;4.85;1.30;;;17.00;76.80;;;;;;5053586;28;20032;-49
2021/08/08 00:51:37;;;;;;;2.50;1.55;;;17.00;76.90;;;;;;5054155;28;20024;-51
2021/08/08 00:54:03;;;;;;;1.33;0.90;;;17.00;76.60;;;;;;5053855;28;20028;-48
2021/08/08 00:56:29;;;;;;;2.72;1.35;;;17.10;76.70;;;;;;5053502;28;20017;-49
2021/08/08 00:58:58;;;;;;;6.95;3.30;;;17.00;77.30;;;;;;5053403;28;20021;-51
2021/08/08 01:01:26;;;;;;;2.45;1.10;;;17.00;77.00;;;;;;5053169;28;20045;-48
2021/08/08 01:03:54;;;;;;;3.20;1.23;;;17.00;77.40;;;;;;5052183;28;20025;-48
2021/08/08 01:06:38;;;;;;;3.78;1.00;;;17.00;77.20;;;;;;5052907;28;20052;-50
2021/08/08 01:09:07;;;;;;;2.00;1.50;;;17.00;77.20;;;;;;5053141;28;20021;-48
2021/08/08 01:11:34;;;;;;;2.75;1.27;;;17.00;77.20;;;;;;5052363;28;20357;-49
2021/08/08 01:14:00;;;;;;;3.70;1.55;;;17.00;77.10;;;;;;5051858;28;20017;-46
2021/08/08 01:16:27;;;;;;;3.65;1.50;;;17.00;77.00;;;;;;5053371;28;20389;-54
2021/08/08 01:18:54;;;;;;;6.22;1.88;;;17.10;76.90;;;;;;5052913;28;20017;-49
2021/08/08 01:21:24;;;;;;;3.63;1.48;;;17.10;77.10;;;;;;5052727;28;20064;-47
2021/08/08 01:23:56;;;;;;;2.20;1.20;;;17.10;77.20;;;;;;5052723;28;20384;-46
2021/08/08 01:26:24;;;;;;;5.47;1.60;;;17.10;77.20;;;;;;5052772;28;20021;-48
2021/08/08 01:28:52;;;;;;;4.93;1.98;;;17.10;77.80;;;;;;5052618;28;20021;-47
2021/08/08 01:31:38;;;;;;;5.20;1.30;;;17.00;78.20;;;;;;5052603;28;20028;-49
2021/08/08 01:34:04;;;;;;;5.25;1.67;;;17.00;77.90;;;;;;5052945;28;20447;-48
2021/08/08 01:36:30;;;;;;;2.38;1.50;;;17.00;78.00;;;;;;5052853;28;20045;-47
2021/08/08 01:39:02;;;;;;;5.47;1.77;;;17.00;78.00;;;;;;5053087;28;20025;-51
2021/08/08 01:41:35;;;;;;;1.35;1.25;;;17.00;77.50;;;;;;5053281;28;20373;-51
2021/08/08 01:44:03;;;;;;;4.85;1.98;;;17.00;77.50;;;;;;5053700;28;20025;-49
2021/08/08 01:46:32;;;;;;;3.03;1.00;;;17.00;77.30;;;;;;5053250;28;20028;-52
2021/08/08 01:48:58;;;;;;;3.45;1.73;;;17.00;77.40;;;;;;5053229;28;20115;-48
2021/08/08 01:51:26;;;;;;;5.25;1.63;;;17.00;77.10;;;;;;5052896;28;20100;-46
2021/08/08 01:53:52;;;;;;;3.05;1.77;;;17.10;77.00;;;;;;5052942;28;20078;-48
2021/08/08 01:56:18;;;;;;;6.25;2.08;;;17.10;76.70;;;;;;5051453;28;20436;-47
2021/08/08 01:58:44;;;;;;;3.25;2.33;;;16.90;77.10;;;;;;5053437;28;20075;-47
2021/08/08 02:01:09;;;;;;;5.75;2.25;;;17.10;76.90;;;;;;5052649;28;20028;-46
2021/08/08 02:03:37;;;;;;;4.20;2.22;;;17.00;76.60;;;;;;5052783;28;20025;-47
2021/08/08 02:06:04;;;;;;;8.52;2.92;;;17.00;76.50;;;;;;5052552;28;20031;-49
2021/08/08 02:08:30;;;;;;;5.10;2.28;;;17.00;76.70;;;;;;5052639;28;20021;-47
2021/08/08 02:10:56;;;;;;;3.70;2.30;;;17.00;76.40;;;;;;5052552;28;20147;-47
2021/08/08 02:13:22;;;;;;;3.17;2.00;;;17.10;76.40;;;;;;5052817;28;20096;-47
2021/08/08 02:15:48;;;;;;;7.03;1.70;;;17.00;76.40;;;;;;5052725;28;20110;-47
2021/08/08 02:18:14;;;;;;;3.42;2.30;;;17.00;76.10;;;;;;5052740;28;20067;-46
2021/08/08 02:20:40;;;;;;;2.90;2.22;;;17.10;76.00;;;;;;5052495;28;20017;-46
2021/08/08 02:23:06;;;;;;;4.18;2.28;;;17.10;75.80;;;;;;5052818;28;20075;-46
2021/08/08 02:25:31;;;;;;;7.35;2.45;;;17.10;75.90;;;;;;5056611;28;20021;-49
2021/08/08 02:27:57;;;;;;;16.77;3.17;;;17.20;75.80;;;;;;5056541;28;20024;-48
2021/08/08 02:30:23;;;;;;;10.07;2.50;;;17.10;75.90;;;;;;5056474;28;20104;-48
2021/08/08 02:32:48;;;;;;;5.63;2.47;;;17.10;75.90;;;;;;5056111;28;20053;-49
2021/08/08 02:35:15;;;;;;;6.85;2.53;;;17.00;76.20;;;;;;5056487;28;20048;-47
2021/08/08 02:37:41;;;;;;;5.50;2.53;;;17.10;76.00;;;;;;5056266;28;20099;-49
2021/08/08 02:40:07;;;;;;;8.73;2.03;;;17.10;75.90;;;;;;5056084;28;20108;-47
2021/08/08 02:42:32;;;;;;;14.23;3.30;;;17.20;75.90;;;;;;5056482;28;20473;-49
2021/08/08 02:44:59;;;;;;;9.98;2.65;;;17.10;75.80;;;;;;5056380;28;20027;-52
2021/08/08 02:47:27;;;;;;;7.55;2.65;;;17.10;75.60;;;;;;5056082;28;20485;-47
2021/08/08 02:49:53;;;;;;;5.78;2.30;;;17.10;75.50;;;;;;5056288;28;20488;-48
2021/08/08 02:52:18;;;;;;;11.40;3.17;;;17.10;75.90;;;;;;5055978;28;20028;-46
2021/08/08 02:54:44;;;;;;;8.05;2.85;;;17.10;75.30;;;;;;5055972;28;20031;-47
2021/08/08 02:57:10;;;;;;;12.65;4.07;;;17.10;74.70;;;;;;5056173;28;20357;-47
2021/08/08 02:59:36;;;;;;;7.63;2.72;;;17.10;74.70;;;;;;5055948;28;20029;-48
2021/08/08 03:02:02;;;;;;;13.48;3.55;;;17.00;74.10;;;;;;5055821;28;20028;-48
2021/08/08 03:04:28;;;;;;;9.05;2.85;;;17.10;74.30;;;;;;5055779;28;20021;-48
2021/08/08 03:06:54;;;;;;;12.38;3.38;;;17.10;74.30;;;;;;5055982;28;20029;-47
2021/08/08 03:09:19;;;;;;;7.65;2.90;;;17.10;74.50;;;;;;5055641;28;20021;-47
2021/08/08 03:11:48;;;;;;;10.50;2.85;;;17.10;74.50;;;;;;5055583;28;20023;-48
2021/08/08 03:14:16;;;;;;;11.55;3.00;;;17.10;74.40;;;;;;5055775;28;20050;-46
2021/08/08 03:16:42;;;;;;;8.38;3.33;;;17.10;74.10;;;;;;5055477;28;20032;-47
2021/08/08 03:19:08;;;;;;;9.30;2.75;;;17.00;74.40;;;;;;5055474;28;20025;-50
2021/08/08 03:21:34;;;;;;;10.73;4.13;;;17.00;74.50;;;;;;5055389;28;20021;-47
2021/08/08 03:24:00;;;;;;;12.35;2.65;;;17.00;74.40;;;;;;5055408;28;20377;-47
2021/08/08 03:26:26;;;;;;;5.97;2.50;;;17.00;74.20;;;;;;5055522;28;20099;-47
2021/08/08 03:28:52;;;;;;;10.70;2.85;;;16.90;74.50;;;;;;5055578;28;20017;-47
2021/08/08 03:31:19;;;;;;;13.50;3.67;;;17.00;74.20;;;;;;5055279;28;20021;-46
2021/08/08 03:33:45;;;;;;;8.82;2.97;;;17.00;74.50;;;;;;5055208;28;20049;-50
2021/08/08 03:36:11;;;;;;;9.98;2.75;;;17.00;73.90;;;;;;5054393;28;20032;-49
2021/08/08 03:38:37;;;;;;;8.25;3.15;;;17.00;73.60;;;;;;5055149;28;20036;-47
2021/08/08 03:41:03;;;;;;;9.40;2.85;;;17.00;73.90;;;;;;5055469;28;20056;-49
2021/08/08 03:43:29;;;;;;;10.13;2.75;;;16.90;74.00;;;;;;5054994;28;20064;-51
2021/08/08 03:45:54;;;;;;;9.65;2.33;;;17.00;73.70;;;;;;5055194;28;20025;-47
2021/08/08 03:48:20;;;;;;;12.50;3.10;;;16.90;73.60;;;;;;5054922;28;20128;-46
2021/08/08 03:50:45;;;;;;;8.07;2.53;;;16.90;73.40;;;;;;5054915;28;20108;-47
2021/08/08 03:53:11;;;;;;;16.08;3.55;;;16.80;73.30;;;;;;5055070;28;20388;-50
2021/08/08 03:55:36;;;;;;;7.97;2.67;;;16.80;73.30;;;;;;5054829;28;20033;-50
2021/08/08 03:58:02;;;;;;;8.50;2.70;;;16.80;73.60;;;;;;5054699;28;20100;-50
2021/08/08 04:00:28;;;;;;;10.38;3.30;;;16.80;73.50;;;;;;5054652;28;20036;-50
2021/08/08 04:02:53;;;;;;;4.95;3.20;;;16.80;73.40;;;;;;5054572;28;20112;-47
2021/08/08 04:05:19;;;;;;;7.38;2.72;;;16.80;73.40;;;;;;5054598;28;20021;-47
2021/08/08 04:07:44;;;;;;;12.70;2.83;;;16.80;72.70;;;;;;5053216;28;20471;-46
2021/08/08 04:10:10;;;;;;;16.65;3.65;;;16.80;72.80;;;;;;5054803;28;20018;-46
2021/08/08 04:12:36;;;;;;;11.98;2.60;;;16.80;72.80;;;;;;5053176;28;20090;-46
2021/08/08 04:15:05;;;;;;;18.63;3.20;;;16.80;72.90;;;;;;5054492;28;20037;-49
2021/08/08 04:17:31;;;;;;;7.50;2.55;;;16.70;73.20;;;;;;5054754;28;20025;-48
2021/08/08 04:19:57;;;;;;;7.43;2.35;;;16.70;73.30;;;;;;5054298;28;20151;-48
2021/08/08 04:22:22;;;;;;;9.15;1.98;;;16.60;73.50;;;;;;5054497;28;20032;-47
2021/08/08 04:24:48;;;;;;;9.73;2.85;;;16.60;73.00;;;;;;5054511;28;20025;-50
2021/08/08 04:27:14;;;;;;;9.32;2.92;;;16.70;73.00;;;;;;5054254;28;20021;-46
2021/08/08 04:29:41;;;;;;;5.43;2.03;;;16.70;73.00;;;;;;5054559;28;20027;-49
2021/08/08 04:32:07;;;;;;;7.70;2.65;;;16.70;73.30;;;;;;5054362;28;20048;-52
2021/08/08 04:34:33;;;;;;;6.45;2.47;;;16.60;73.20;;;;;;5054073;28;20043;-50
2021/08/08 04:37:02;;;;;;;12.18;3.22;;;16.60;73.40;;;;;;5053983;28;20357;-48
2021/08/08 04:39:28;;;;;;;11.63;3.17;;;16.60;73.80;;;;;;5054181;28;20025;-48
2021/08/08 04:41:53;;;;;;;6.60;2.72;;;16.50;74.10;;;;;;5053866;28;20028;-47
2021/08/08 04:44:20;;;;;;;10.75;2.97;;;16.50;74.40;;;;;;5053900;28;20025;-47
2021/08/08 04:46:46;;;;;;;8.68;3.45;;;16.50;74.50;;;;;;5053933;28;20029;-47
2021/08/08 04:49:11;;;;;;;13.00;3.63;;;16.50;74.40;;;;;;5054230;28;20024;-51
2021/08/08 04:51:37;;;;;;;10.23;3.28;;;16.40;74.60;;;;;;5054956;28;20025;-46
2021/08/08 04:54:03;;;;;;;8.95;3.22;;;16.40;74.80;;;;;;5054457;28;20171;-47
2021/08/08 04:56:29;;;;;;;7.20;2.40;;;16.50;74.40;;;;;;5054157;28;20029;-46
2021/08/08 04:58:54;;;;;;;10.27;2.55;;;16.40;74.50;;;;;;5053717;28;20492;-49
2021/08/08 05:01:20;;;;;;;16.90;3.22;;;16.40;74.50;;;;;;5053583;28;20086;-46
2021/08/08 05:03:46;;;;;;;12.35;3.90;;;16.50;74.20;;;;;;5053908;28;20104;-46
2021/08/08 05:06:11;;;;;;;11.52;4.78;;;16.40;74.10;;;;;;5053755;28;20053;-46
2021/08/08 05:08:37;;;;;;;12.02;3.33;;;16.40;74.10;;;;;;5053889;28;20052;-49
2021/08/08 05:11:02;;;;;;;8.23;2.70;;;16.50;74.10;;;;;;5053632;28;20024;-48
2021/08/08 05:13:29;;;;;;;8.88;2.78;;;16.50;74.10;;;;;;5053338;28;20037;-48
2021/08/08 05:15:55;;;;;;;13.63;3.05;;;16.60;74.00;;;;;;5053283;28;20062;-48
2021/08/08 05:18:21;;;;;;;8.30;3.08;;;16.40;74.30;;;;;;5053174;28;20033;-46
2021/08/08 05:20:47;;;;;;;11.95;3.25;;;16.50;74.60;;;;;;5053115;28;20097;-47
2021/08/08 05:23:12;;;;;;;9.07;2.65;;;16.40;74.70;;;;;;5052065;28;20033;-46
2021/08/08 05:25:38;;;;;;;11.90;3.10;;;16.40;74.40;;;;;;5053330;28;20028;-47
2021/08/08 05:28:04;;;;;;;15.93;3.75;;;16.30;74.70;;;;;;5051709;28;20392;-46
2021/08/08 05:30:30;;;;;;;8.55;3.47;;;16.30;74.80;;;;;;5052998;28;20021;-49
2021/08/08 05:32:55;;;;;;;9.15;3.38;;;16.40;74.80;;;;;;5052788;28;20090;-48
2021/08/08 05:35:21;;;;;;;10.15;3.50;;;16.40;74.50;;;;;;5051610;28;20495;-47
2021/08/08 05:37:46;;;;;;;9.07;2.85;;;16.40;74.70;;;;;;5052947;28;20025;-47
2021/08/08 05:40:12;;;;;;;13.77;3.20;;;16.50;74.60;;;;;;5052959;28;20361;-46
2021/08/08 05:42:44;;;;;;;9.60;3.15;;;16.40;74.70;;;;;;5053046;28;20029;-46
2021/08/08 05:45:10;;;;;;;7.72;3.28;;;16.30;75.50;;;;;;5053657;28;20063;-47
2021/08/08 05:47:36;;;;;;;13.90;3.40;;;16.30;75.30;;;;;;5053094;28;20029;-47
2021/08/08 05:50:01;;;;;;;11.55;3.80;;;16.30;75.50;;;;;;5052845;28;20013;-47
2021/08/08 05:52:27;;;;;;;11.60;3.55;;;16.30;75.30;;;;;;5052714;28;20040;-46
2021/08/08 05:54:53;;;;;;;8.50;3.30;;;16.30;75.40;;;;;;5053108;28;20401;-48
2021/08/08 05:57:18;;;;;;;11.80;2.97;;;16.30;75.50;;;;;;5052831;28;20063;-46
2021/08/08 05:59:44;;;;;;;7.78;2.92;;;16.30;75.50;;;;;;5052451;28;20040;-49
2021/08/08 06:02:10;;;;;;;10.27;3.08;;;16.20;75.90;;;;;;5052777;28;20029;-48
2021/08/08 06:04:35;;;;;;;26.33;7.68;;;16.30;75.30;;;;;;5053253;28;20048;-47
2021/08/08 06:07:01;;;;;;;14.23;3.40;;;16.40;75.30;;;;;;5052821;28;20025;-48
2021/08/08 06:09:27;;;;;;;8.43;3.00;;;16.50;74.80;;;;;;5052468;28;20032;-48
2021/08/08 06:11:52;;;;;;;12.80;3.95;;;16.50;75.10;;;;;;5052272;28;20027;-46
2021/08/08 06:14:18;;;;;;;25.55;4.28;;;16.40;75.40;;;;;;5052257;28;20578;-46
2021/08/08 06:16:43;;;;;;;14.05;3.40;;;16.30;75.50;;;;;;5052254;28;20025;-46
2021/08/08 06:19:09;;;;;;;13.55;3.88;;;16.30;75.40;;;;;;5052542;28;20438;-48
2021/08/08 06:21:35;;;;;;;6.40;2.42;;;16.30;75.60;;;;;;5052313;28;20481;-47
2021/08/08 06:24:00;;;;;;;8.32;3.53;;;16.40;75.60;;;;;;5050760;28;20048;-47
2021/08/08 06:26:26;;;;;;;12.20;3.22;;;16.30;75.60;;;;;;5052172;28;20040;-46
2021/08/08 06:28:55;;;;;;;14.82;3.65;;;16.30;75.70;;;;;;5052173;28;20021;-47
2021/08/08 06:31:21;;;;;;;26.02;4.22;;;16.40;75.50;;;;;;5052010;28;20554;-48
2021/08/08 06:33:46;;;;;;;6.18;2.75;;;16.40;75.30;;;;;;5052299;28;20074;-47
2021/08/08 06:36:12;;;;;;;10.63;2.78;;;16.50;75.40;;;;;;5052361;28;20154;-45
2021/08/08 06:38:38;;;;;;;9.55;2.90;;;16.30;75.10;;;;;;5052446;28;20106;-46
2021/08/08 06:41:04;;;;;;;16.80;3.38;;;16.40;76.00;;;;;;5052141;28;20128;-49
2021/08/08 06:43:29;;;;;;;11.65;3.22;;;16.10;78.20;;;;;;5051990;28;20033;-45
2021/08/08 06:45:55;;;;;;;17.75;3.92;;;16.00;78.50;;;;;;5052386;28;20067;-47
2021/08/08 06:48:20;;;;;;;11.70;3.55;;;16.00;78.10;;;;;;5052010;28;20022;-46
2021/08/08 06:50:46;;;;;;;9.32;3.28;;;16.00;77.90;;;;;;5051992;28;20023;-49
2021/08/08 06:53:12;;;;;;;14.68;3.42;;;16.20;77.00;;;;;;5052233;28;20036;-46
2021/08/08 06:55:40;;;;;;;12.07;3.28;;;16.20;76.90;;;;;;5052010;28;20059;-47
2021/08/08 06:58:06;;;;;;;9.27;2.60;;;16.30;77.00;;;;;;5050582;28;20025;-50
2021/08/08 07:00:31;;;;;;;9.93;3.67;;;16.30;76.50;;;;;;5050547;28;20036;-47
2021/08/08 07:02:57;;;;;;;18.48;3.25;;;16.30;75.80;;;;;;5051880;28;20029;-50
2021/08/08 07:05:23;;;;;;;14.52;3.72;;;16.30;75.60;;;;;;5051951;28;20433;-47
2021/08/08 07:07:48;;;;;;;14.27;3.28;;;16.30;75.70;;;;;;5051974;28;20022;-48
2021/08/08 07:10:14;;;;;;;7.72;2.78;;;16.50;75.90;;;;;;5051440;28;20021;-48
2021/08/08 07:12:39;;;;;;;8.98;3.05;;;16.30;75.50;;;;;;5055702;28;20358;-47
2021/08/08 07:15:07;;;;;;;6.25;3.10;;;16.40;75.40;;;;;;5055790;28;20025;-49
2021/08/08 07:17:33;;;;;;;10.68;3.28;;;16.40;75.20;;;;;;5054140;28;20024;-49
2021/08/08 07:19:58;;;;;;;11.20;4.20;;;16.50;74.80;;;;;;5055675;28;20032;-48
2021/08/08 07:22:24;;;;;;;11.10;3.17;;;16.50;74.90;;;;;;5055249;28;20113;-47
2021/08/08 07:24:52;;;;;;;14.38;3.50;;;16.40;74.80;;;;;;5055405;28;20021;-48
2021/08/08 07:27:19;;;;;;;13.38;3.92;;;16.50;74.70;;;;;;5055329;28;20053;-48
2021/08/08 07:29:44;;;;;;;15.07;4.45;;;16.50;75.00;;;;;;5055163;28;20025;-47
2021/08/08 07:32:10;;;;;;;11.13;3.42;;;16.60;75.00;;;;;;5055023;28;20049;-46
2021/08/08 07:34:36;;;;;;;14.15;5.05;;;16.50;74.70;;;;;;5055115;28;20055;-46
2021/08/08 07:37:01;;;;;;;12.32;3.35;;;16.70;74.70;;;;;;5055064;28;20431;-48
2021/08/08 07:39:28;;;;;;;13.80;4.50;;;16.60;74.40;;;;;;5055088;28;20029;-46
2021/08/08 07:41:54;;;;;;;7.03;3.10;;;16.70;74.40;;;;;;5055322;28;20504;-47
2021/08/08 07:44:20;;;;;;;12.50;3.30;;;16.80;73.80;;;;;;5055466;28;20033;-46
2021/08/08 07:46:45;;;;;;;11.15;3.80;;;16.80;74.10;;;;;;5055269;28;20021;-49
2021/08/08 07:49:11;;;;;;;10.90;2.92;;;16.80;73.90;;;;;;5053579;28;20401;-46
2021/08/08 07:51:36;;;;;;;13.15;3.33;;;16.70;73.80;;;;;;5055150;28;20029;-48
2021/08/08 07:54:02;;;;;;;10.68;3.17;;;16.80;73.50;;;;;;5054936;28;20312;-51
2021/08/08 07:56:28;;;;;;;6.85;3.35;;;16.80;73.50;;;;;;5055305;28;20028;-48
2021/08/08 07:58:53;;;;;;;11.10;2.85;;;16.90;73.10;;;;;;5055085;28;20037;-51
2021/08/08 08:01:19;;;;;;;11.60;3.17;;;17.00;72.70;;;;;;5055970;28;20414;-47
2021/08/08 08:03:44;;;;;;;11.30;3.50;;;17.20;72.40;;;;;;5054938;28;20041;-50
2021/08/08 08:06:10;;;;;;;10.98;3.17;;;17.30;71.70;;;;;;5055062;28;20104;-51
2021/08/08 08:08:36;;;;;;;9.15;2.83;;;17.40;71.50;;;;;;5055049;28;20036;-49
2021/08/08 08:11:02;;;;;;;10.48;3.60;;;17.40;71.50;;;;;;5053896;28;20025;-47
2021/08/08 08:13:27;;;;;;;8.65;3.20;;;17.40;71.30;;;;;;5055077;28;20381;-47
2021/08/08 08:15:53;;;;;;;11.48;3.25;;;17.40;70.90;;;;;;5054565;28;20025;-47
2021/08/08 08:18:18;;;;;;;12.75;3.75;;;17.60;70.60;;;;;;5054198;28;20028;-46
2021/08/08 08:20:44;;;;;;;12.07;3.72;;;17.80;69.90;;;;;;5053755;28;20037;-47
2021/08/08 08:23:10;;;;;;;12.50;3.15;;;18.00;68.90;;;;;;5054345;28;20021;-48
2021/08/08 08:25:35;;;;;;;5.82;2.40;;;18.20;68.60;;;;;;5053281;28;20025;-46
2021/08/08 08:28:01;;;;;;;8.40;2.65;;;19.10;65.80;;;;;;5054047;28;20032;-46
2021/08/08 08:30:27;;;;;;;23.25;4.30;;;19.30;64.00;;;;;;5053968;28;20033;-46
2021/08/08 08:32:52;;;;;;;9.57;2.92;;;18.60;64.00;;;;;;5053935;28;20067;-47
2021/08/08 08:35:18;;;;;;;9.95;2.72;;;19.20;62.50;;;;;;5054034;28;20066;-48
2021/08/08 08:37:44;;;;;;;5.80;2.33;;;18.90;61.90;;;;;;5054050;28;20044;-47
2021/08/08 08:40:10;;;;;;;8.02;2.88;;;18.70;61.70;;;;;;5054163;28;20021;-47
2021/08/08 08:42:44;;;;;;;8.00;2.60;;;18.30;63.60;;;;;;5053775;28;20075;-50
2021/08/08 08:45:12;;;;;;;10.50;2.53;;;18.30;64.50;;;;;;5053570;28;20021;-49
2021/08/08 08:47:40;;;;;;;18.98;2.67;;;18.70;63.90;;;;;;5053780;28;20379;-49
2021/08/08 08:50:07;;;;;;;10.60;3.40;;;18.60;63.80;;;;;;5051971;28;20404;-47
2021/08/08 08:52:35;;;;;;;12.73;3.92;;;18.30;65.50;;;;;;5053625;28;20161;-46
2021/08/08 08:55:02;;;;;;;8.43;2.92;;;18.50;65.10;;;;;;5053743;28;20492;-47
2021/08/08 08:57:28;;;;;;;12.30;3.03;;;18.70;63.80;;;;;;5052354;28;20389;-47
2021/08/08 08:59:54;;;;;;;7.15;3.40;;;18.60;62.90;;;;;;5053424;28;20021;-48
2021/08/08 09:02:19;;;;;;;11.45;2.97;;;18.30;63.70;;;;;;5053572;28;20096;-48
2021/08/08 09:04:45;;;;;;;8.23;2.83;;;18.40;63.00;;;;;;5053419;28;20020;-47
2021/08/08 09:07:11;;;;;;;6.15;2.85;;;18.50;62.70;;;;;;5053424;28;20033;-49
2021/08/08 09:09:37;;;;;;;7.80;2.88;;;18.80;61.70;;;;;;5053519;28;20017;-50
2021/08/08 09:12:03;;;;;;;14.65;3.10;;;19.20;61.00;;;;;;5052014;28;20020;-51
2021/08/08 09:14:32;;;;;;;11.38;3.28;;;19.40;59.70;;;;;;5053656;28;20397;-51
2021/08/08 09:16:58;;;;;;;5.63;2.63;;;19.00;60.40;;;;;;5053250;28;20071;-46
2021/08/08 09:19:34;;;;;;;11.43;2.63;;;18.80;60.60;;;;;;5053244;28;20077;-51
2021/08/08 09:22:00;;;;;;;8.13;2.65;;;19.10;60.50;;;;;;5053158;28;20029;-49
2021/08/08 09:24:34;;;;;;;7.95;3.20;;;19.60;58.50;;;;;;5053479;28;20032;-49
2021/08/08 09:27:11;;;;;;;10.32;2.50;;;20.30;57.10;;;;;;5053098;28;20393;-48
2021/08/08 09:29:40;;;;;;;9.40;2.33;;;19.80;59.20;;;;;;5053393;28;20040;-47
2021/08/08 09:32:06;;;;;;;10.43;4.25;;;20.10;57.30;;;;;;5053549;28;20045;-49
2021/08/08 09:34:35;;;;;;;8.90;2.95;;;19.90;58.80;;;;;;5052773;28;20158;-48
2021/08/08 09:37:06;;;;;;;13.10;3.00;;;19.30;59.10;;;;;;5053544;28;20112;-46
2021/08/08 09:39:41;;;;;;;8.88;2.35;;;19.80;58.60;;;;;;5053022;28;20025;-48
2021/08/08 09:42:07;;;;;;;10.63;2.92;;;20.50;55.60;;;;;;5053021;28;20377;-50
2021/08/08 09:44:33;;;;;;;9.15;3.45;;;21.10;54.30;;;;;;5053311;28;20017;-48
2021/08/08 09:46:59;;;;;;;7.28;2.63;;;20.90;55.30;;;;;;5052792;28;20036;-49
2021/08/08 09:49:25;;;;;;;15.30;2.90;;;20.10;56.80;;;;;;5053036;28;20469;-47
2021/08/08 09:51:53;;;;;;;6.38;2.35;;;19.70;59.10;;;;;;5053260;28;20017;-48
2021/08/08 09:54:19;;;;;;;10.30;3.15;;;19.40;58.50;;;;;;5051943;28;20057;-47
2021/08/08 09:56:58;;;;;;;7.90;2.95;;;18.90;60.20;;;;;;5053335;28;20444;-47
2021/08/08 09:59:24;;;;;;;11.27;2.97;;;18.70;61.10;;;;;;5052929;28;20024;-48
2021/08/08 10:01:49;;;;;;;13.30;3.47;;;19.10;59.90;;;;;;5052910;28;20052;-49
2021/08/08 10:04:15;;;;;;;12.85;3.47;;;19.00;60.60;;;;;;5053114;28;20033;-49
2021/08/08 10:06:42;;;;;;;7.18;2.53;;;19.20;59.90;;;;;;5053085;28;20028;-47
2021/08/08 10:09:11;;;;;;;9.77;2.70;;;19.30;59.60;;;;;;5053346;28;20373;-50
2021/08/08 10:11:42;;;;;;;11.05;2.65;;;19.80;58.50;;;;;;5053063;28;20098;-49
2021/08/08 10:14:08;;;;;;;13.35;3.22;;;19.80;58.20;;;;;;5052982;28;20044;-48
2021/08/08 10:16:39;;;;;;;12.77;2.90;;;19.90;58.50;;;;;;5052365;28;20431;-47
2021/08/08 10:19:06;;;;;;;13.70;3.67;;;19.70;58.60;;;;;;5052550;28;20064;-48
2021/08/08 10:21:33;;;;;;;12.25;2.80;;;19.50;58.70;;;;;;5052665;28;20476;-47
2021/08/08 10:24:04;;;;;;;10.60;3.00;;;19.30;59.90;;;;;;5052471;28;20032;-49
2021/08/08 10:26:30;;;;;;;6.72;2.60;;;19.30;59.60;;;;;;5052359;28;20027;-48
2021/08/08 10:28:57;;;;;;;8.70;2.88;;;19.50;59.30;;;;;;5051095;28;20104;-48
2021/08/08 10:31:25;;;;;;;7.60;2.42;;;19.80;58.40;;;;;;5052240;28;20028;-49
2021/08/08 10:33:53;;;;;;;7.60;2.65;;;19.50;57.70;;;;;;5052767;28;20029;-47
2021/08/08 10:36:25;;;;;;;10.80;3.17;;;19.10;59.80;;;;;;5053066;28;20082;-48
2021/08/08 10:38:52;;;;;;;10.45;2.95;;;19.00;60.40;;;;;;5052836;28;20406;-52
2021/08/08 10:41:18;;;;;;;12.88;3.00;;;18.80;60.70;;;;;;5052165;28;20108;-48
2021/08/08 10:43:44;;;;;;;9.27;2.40;;;18.80;60.90;;;;;;5052142;28;20108;-47
2021/08/08 10:46:11;;;;;;;8.05;2.50;;;18.50;61.70;;;;;;5056170;28;20013;-49
2021/08/08 10:48:39;;;;;;;5.35;2.45;;;18.60;60.70;;;;;;5056143;28;20385;-50
2021/08/08 10:51:17;;;;;;;8.43;3.03;;;19.40;58.70;;;;;;5056434;28;20036;-48
2021/08/08 10:53:42;;;;;;;9.10;2.45;;;20.10;57.40;;;;;;5056262;28;20106;-47
2021/08/08 10:56:09;;;;;;;7.55;2.33;;;20.00;56.20;;;;;;5056465;28;20033;-47
2021/08/08 10:58:37;;;;;;;5.60;2.22;;;19.40;57.70;;;;;;5056264;28;20024;-48
2021/08/08 11:01:20;;;;;;;7.65;2.20;;;19.30;57.80;;;;;;5054679;28;20025;-50
2021/08/08 11:03:53;;;;;;;10.75;2.65;;;19.20;57.70;;;;;;5054486;28;20025;-47
2021/08/08 11:06:26;;;;;;;6.03;2.17;;;19.00;59.00;;;;;;5055939;28;20031;-46
2021/08/08 11:08:53;;;;;;;14.05;4.57;;;19.20;58.30;;;;;;5056181;28;20433;-49
2021/08/08 11:11:29;;;;;;;5.97;2.33;;;19.70;56.80;;;;;;5056244;28;20025;-49
2021/08/08 11:14:11;;;;;;;8.13;2.20;;;20.20;55.90;;;;;;5056473;28;20029;-47
2021/08/08 11:16:37;;;;;;;7.78;2.25;;;20.30;55.70;;;;;;5056320;28;20425;-47
2021/08/08 11:19:03;;;;;;;8.82;2.20;;;20.40;55.60;;;;;;5056430;28;20025;-50
2021/08/08 11:21:29;;;;;;;13.38;2.50;;;20.60;55.00;;;;;;5055691;28;20086;-47
2021/08/08 11:24:00;;;;;;;12.93;2.58;;;20.50;54.80;;;;;;5054482;28;20083;-50
2021/08/08 11:26:26;;;;;;;8.40;2.97;;;20.00;56.20;;;;;;5055979;28;20448;-46
2021/08/08 11:28:58;;;;;;;8.82;2.63;;;20.30;55.60;;;;;;5055867;28;20025;-50
2021/08/08 11:31:31;;;;;;;8.82;2.40;;;20.00;55.10;;;;;;5055641;28;20534;-45
2021/08/08 11:34:02;;;;;;;5.93;2.45;;;19.80;56.40;;;;;;5055552;28;20025;-47
2021/08/08 11:36:33;;;;;;;8.05;2.55;;;20.00;56.10;;;;;;5055373;28;20083;-48
2021/08/08 11:39:00;;;;;;;10.80;3.15;;;20.40;55.10;;;;;;5055710;28;20052;-49
2021/08/08 11:41:26;;;;;;;6.25;2.13;;;20.30;56.00;;;;;;5055683;28;20461;-49
2021/08/08 11:44:10;;;;;;;7.45;2.88;;;19.80;56.80;;;;;;5055322;28;20025;-51
2021/08/08 11:46:38;;;;;;;8.75;2.40;;;19.60;58.10;;;;;;5055902;28;20469;-50
2021/08/08 11:49:18;;;;;;;9.20;2.63;;;19.90;57.20;;;;;;5055734;28;20049;-48
2021/08/08 11:51:54;;;;;;;;;;;20.80;53.90;;;;;;5055816;28;20025;-46
2021/08/08 11:54:25;;;;;;;7.13;2.35;;;20.30;54.50;;;;;;5054936;28;19905;-47
2021/08/08 11:56:51;;;;;;;6.03;1.90;;;20.70;53.70;;;;;;5054259;28;20099;-48
2021/08/08 11:59:30;;;;;;;8.02;1.70;;;20.80;52.70;;;;;;5054869;28;20052;-48
2021/08/08 12:02:09;;;;;;;9.65;2.53;;;20.30;54.00;;;;;;5053242;28;20491;-48
2021/08/08 12:04:37;;;;;;;6.47;2.78;;;20.30;54.10;;;;;;5054827;28;20555;-48
2021/08/08 12:07:09;;;;;;;5.53;2.08;;;19.90;55.70;;;;;;5054610;28;20017;-49
2021/08/08 12:09:36;;;;;;;10.13;2.85;;;19.70;56.90;;;;;;5055842;28;20373;-47
2021/08/08 12:12:06;;;;;;;6.30;2.28;;;19.80;55.30;;;;;;5055788;28;20036;-49
2021/08/08 12:14:36;;;;;;;6.18;1.70;;;19.40;56.10;;;;;;5055730;28;20025;-48
2021/08/08 12:17:12;;;;;;;6.38;2.65;;;19.70;56.00;;;;;;5055393;28;20115;-46
2021/08/08 12:19:40;;;;;;;7.25;2.50;;;19.70;56.50;;;;;;5054938;28;20025;-47
2021/08/08 12:22:07;;;;;;;6.32;1.67;;;19.50;57.00;;;;;;5054611;28;20067;-48
2021/08/08 12:24:41;;;;;;;4.65;1.92;;;19.30;57.70;;;;;;5054726;28;20385;-49
2021/08/08 12:27:08;;;;;;;8.07;2.22;;;19.20;58.10;;;;;;5054181;28;20102;-50
2021/08/08 12:29:37;;;;;;;7.28;1.92;;;19.40;58.10;;;;;;5054423;28;20025;-48
2021/08/08 12:32:09;;;;;;;6.07;2.00;;;19.10;60.10;;;;;;5054028;28;20455;-50
2021/08/08 12:34:35;;;;;;;7.95;2.47;;;19.50;59.80;;;;;;5054152;28;20029;-48
2021/08/08 12:37:10;;;;;;;10.50;2.45;;;19.80;58.30;;;;;;5054239;28;20096;-50
2021/08/08 12:39:38;;;;;;;7.03;2.22;;;20.40;56.60;;;;;;5054532;28;20096;-49
2021/08/08 12:42:15;;;;;;;8.35;2.40;;;20.30;54.60;;;;;;5054381;28;20550;-48